Time;durP1;ratioP1;P1;durP2;ratioP2;P2;SDS_P1;SDS_P2;PMS_P1;PMS_P2;Temp;Humidity;BMP_temperature;BMP_pressure;BME280_temperature;BME280_humidity;BME280_pressure;Samples;Min_cycle;Max_cycle;Signal;HPM_P1;HPM_P2
2022/01/19 00:00:39;;;;;;;26.13;13.95;;;;;;;;;;5074443;28;20031;-65
2022/01/19 00:03:04;;;;;;;21.77;13.13;;;;;;;;;;5073030;28;20029;-64
2022/01/19 00:05:30;;;;;;;23.75;13.77;;;;;;;;;;5072814;28;20033;-65
2022/01/19 00:07:55;;;;;;;21.95;13.27;;;;;;;;;;5073065;28;20032;-65
2022/01/19 00:10:27;;;;;;;25.30;14.23;;;;;;;;;;5072647;28;20460;-64
2022/01/19 00:12:55;;;;;;;26.27;14.57;;;;;;;;;;5072971;28;20406;-65
2022/01/19 00:15:21;;;;;;;24.92;14.30;;;;;;;;;;5072691;28;20028;-66
2022/01/19 00:17:47;;;;;;;25.90;13.70;;;;;;;;;;5072594;28;20619;-65
2022/01/19 00:20:12;;;;;;;23.17;13.43;;;;;;;;;;5073045;28;20120;-65
2022/01/19 00:22:38;;;;;;;24.05;13.13;;;;;;;;;;5073017;28;20415;-66
2022/01/19 00:25:06;;;;;;;23.52;13.50;;;;;;;;;;5072374;28;20021;-66
2022/01/19 00:27:31;;;;;;;22.17;13.55;;;;;;;;;;5072641;28;20039;-66
2022/01/19 00:29:57;;;;;;;22.80;12.57;;;;;;;;;;5072423;28;20032;-64
2022/01/19 00:32:24;;;;;;;23.42;13.57;;;;;;;;;;5072530;28;20117;-66
2022/01/19 00:34:50;;;;;;;26.88;13.98;;;;;;;;;;5072454;28;20301;-66
2022/01/19 00:37:15;;;;;;;24.67;14.07;;;;;;;;;;5072516;28;20345;-67
2022/01/19 00:39:40;;;;;;;30.63;14.50;;;;;;;;;;5072589;28;20121;-66
2022/01/19 00:42:06;;;;;;;23.45;13.45;;;;;;;;;;5073273;28;20121;-66
2022/01/19 00:44:31;;;;;;;26.15;13.85;;;;;;;;;;5072081;28;20052;-66
2022/01/19 00:46:57;;;;;;;22.40;13.52;;;;;;;;;;5071976;28;20032;-69
2022/01/19 00:49:22;;;;;;;25.05;13.80;;;;;;;;;;5072741;28;20032;-67
2022/01/19 00:51:48;;;;;;;26.52;13.48;;;;;;;;;;5070805;28;20020;-63
2022/01/19 00:54:13;;;;;;;24.48;13.95;;;;;;;;;;5072098;28;20569;-66
2022/01/19 00:56:39;;;;;;;22.88;12.93;;;;;;;;;;5071999;28;20442;-67
2022/01/19 00:59:05;;;;;;;22.65;13.23;;;;;;;;;;5071735;28;20453;-65
2022/01/19 01:01:31;;;;;;;23.33;12.75;;;;;;;;;;5079652;28;20549;-64
2022/01/19 01:03:56;;;;;;;25.85;12.88;;;;;;;;;;5071799;28;20025;-64
2022/01/19 01:06:22;;;;;;;26.73;12.73;;;;;;;;;;5071785;28;20044;-66
2022/01/19 01:08:47;;;;;;;26.92;12.95;;;;;;;;;;5071369;28;20029;-65
2022/01/19 01:11:13;;;;;;;23.75;12.27;;;;;;;;;;5071890;28;20020;-64
2022/01/19 01:17:10;;;;;;;23.85;10.77;;;;;;;;;;5071297;28;20104;-65
2022/01/19 01:19:15;;;;;;;19.13;10.00;;;;;;;;;;5068071;28;20114;-64
2022/01/19 01:21:40;;;;;;;23.85;11.32;;;;;;;;;;5071507;28;20472;-65
2022/01/19 01:24:05;;;;;;;21.25;11.38;;;;;;;;;;5071623;28;20104;-65
2022/01/19 01:26:31;;;;;;;21.52;11.02;;;;;;;;;;5071422;28;20032;-65
2022/01/19 01:28:56;;;;;;;21.25;10.90;;;;;;;;;;5071285;28;20472;-63
2022/01/19 01:31:22;;;;;;;22.40;10.80;;;;;;;;;;5071562;28;20067;-63
2022/01/19 01:33:47;;;;;;;20.08;10.75;;;;;;;;;;5071250;28;20071;-64
2022/01/19 01:36:14;;;;;;;23.98;11.27;;;;;;;;;;5071081;28;20067;-66
2022/01/19 01:38:39;;;;;;;19.40;10.48;;;;;;;;;;5071104;28;20025;-63
2022/01/19 01:41:09;;;;;;;23.05;10.52;;;;;;;;;;5071241;28;20024;-65
2022/01/19 01:43:34;;;;;;;21.38;10.70;;;;;;;;;;5071197;28;20396;-65
2022/01/19 01:46:07;;;;;;;18.63;10.15;;;;;;;;;;5069421;28;20039;-64
2022/01/19 01:48:41;;;;;;;19.50;10.40;;;;;;;;;;5071150;28;20035;-63
2022/01/19 01:53:53;;;;;;;16.70;10.13;;;;;;;;;;5071580;28;20081;-64
2022/01/19 01:56:19;;;;;;;20.27;10.10;;;;;;;;;;5070679;28;20104;-63
2022/01/19 01:58:47;;;;;;;20.70;10.65;;;;;;;;;;5070968;28;20202;-65
2022/01/19 02:01:13;;;;;;;20.83;10.70;;;;;;;;;;5069441;28;20487;-65
2022/01/19 02:03:41;;;;;;;20.70;10.93;;;;;;;;;;5070841;28;20020;-64
2022/01/19 02:08:52;;;;;;;20.55;11.40;;;;;;;;;;5070717;28;20148;-65
2022/01/19 02:23:07;;;;;;;19.17;10.73;;;;;;;;;;5071014;28;20078;-65
2022/01/19 02:25:39;;;;;;;18.30;9.50;;;;;;;;;;5070225;28;20025;-64
2022/01/19 02:41:36;;;;;;;15.77;9.45;;;;;;;;;;5070627;28;20035;-65
2022/01/19 02:44:02;;;;;;;17.80;9.32;;;;;;;;;;5070364;28;20028;-66
2022/01/19 02:49:14;;;;;;;17.30;8.93;;;;;;;;;;5070300;28;20029;-64
2022/01/19 02:51:40;;;;;;;20.42;9.63;;;;;;;;;;5070182;28;20031;-65
2022/01/19 02:54:05;;;;;;;17.35;9.15;;;;;;;;;;5069851;28;20032;-65
2022/01/19 02:56:34;;;;;;;20.20;9.10;;;;;;;;;;5070145;28;20025;-64
2022/01/19 02:59:13;;;;;;;17.00;9.02;;;;;;;;;;5069718;28;20078;-64
2022/01/19 03:09:42;;;;;;;14.73;7.85;;;;;;;;;;5071484;28;20036;-65
2022/01/19 03:12:08;;;;;;;15.82;7.88;;;;;;;;;;5069941;28;20275;-64
2022/01/19 03:14:34;;;;;;;16.65;8.48;;;;;;;;;;5069649;28;20020;-65
2022/01/19 03:16:59;;;;;;;14.80;7.72;;;;;;;;;;5069324;28;20535;-64
2022/01/19 03:19:27;;;;;;;14.90;7.78;;;;;;;;;;5069427;28;20391;-64
2022/01/19 03:21:53;;;;;;;13.75;7.35;;;;;;;;;;5069732;28;20036;-65
2022/01/19 03:24:19;;;;;;;16.92;7.80;;;;;;;;;;5069865;28;20031;-64
2022/01/19 03:26:44;;;;;;;17.17;7.22;;;;;;;;;;5069803;28;20081;-65
2022/01/19 03:29:10;;;;;;;14.45;7.38;;;;;;;;;;5069637;28;20445;-64
2022/01/19 03:31:35;;;;;;;13.70;6.65;;;;;;;;;;5069884;28;20087;-64
2022/01/19 03:34:01;;;;;;;13.93;7.25;;;;;;;;;;5073538;28;20453;-65
2022/01/19 03:36:27;;;;;;;14.20;7.15;;;;;;;;;;5073396;28;20498;-65
2022/01/19 03:38:53;;;;;;;13.15;6.57;;;;;;;;;;5073165;28;20075;-64
2022/01/19 03:41:18;;;;;;;13.80;7.20;;;;;;;;;;5073608;28;20032;-64
2022/01/19 03:43:44;;;;;;;13.82;6.38;;;;;;;;;;5073469;28;20024;-64
2022/01/19 03:46:14;;;;;;;12.63;6.45;;;;;;;;;;5073024;28;20407;-65
2022/01/19 03:48:52;;;;;;;11.13;6.95;;;;;;;;;;5073238;28;20020;-64
2022/01/19 03:51:21;;;;;;;14.70;6.82;;;;;;;;;;5072004;28;20377;-66
2022/01/19 03:53:47;;;;;;;15.30;7.20;;;;;;;;;;5073528;28;20029;-65
2022/01/19 03:56:13;;;;;;;11.80;6.72;;;;;;;;;;5073599;28;20032;-63
2022/01/19 03:58:39;;;;;;;15.50;6.60;;;;;;;;;;5073415;28;20028;-65
2022/01/19 04:01:06;;;;;;;12.02;6.32;;;;;;;;;;5073035;28;20025;-66
2022/01/19 04:09:01;;;;;;;12.77;6.82;;;;;;;;;;5050933;28;20047;-66
2022/01/19 04:11:27;;;;;;;13.93;6.90;;;;;;;;;;5072778;28;20029;-66
2022/01/19 04:16:24;;;;;;;14.13;6.82;;;;;;;;;;5073100;28;20028;-66
2022/01/19 04:18:54;;;;;;;9.98;5.85;;;;;;;;;;5072396;28;20041;-65
2022/01/19 04:21:19;;;;;;;12.98;6.47;;;;;;;;;;5072719;28;20036;-66
2022/01/19 04:23:45;;;;;;;12.30;6.32;;;;;;;;;;5072647;28;20036;-64
2022/01/19 04:26:10;;;;;;;12.48;6.53;;;;;;;;;;5072405;28;20025;-65
2022/01/19 04:28:36;;;;;;;9.70;5.60;;;;;;;;;;5072482;28;20078;-64
2022/01/19 04:31:02;;;;;;;12.90;6.60;;;;;;;;;;5072600;28;20020;-64
2022/01/19 04:33:28;;;;;;;12.85;6.05;;;;;;;;;;5072630;28;20024;-63
2022/01/19 04:36:06;;;;;;;14.13;5.78;;;;;;;;;;5072662;28;20024;-65
2022/01/19 04:44:33;;;;;;;12.50;6.07;;;;;;;;;;5071278;28;20040;-64
2022/01/19 04:47:16;;;;;;;10.82;5.50;;;;;;;;;;5071715;28;20028;-64
2022/01/19 05:05:57;;;;;;;12.02;5.82;;;;;;;;;;5072227;28;20108;-69
2022/01/19 05:13:38;;;;;;;12.88;6.05;;;;;;;;;;5072113;28;20396;-65
2022/01/19 05:16:04;;;;;;;10.52;5.80;;;;;;;;;;5071442;28;20017;-69
2022/01/19 05:18:30;;;;;;;14.73;6.07;;;;;;;;;;5071303;28;20044;-68
2022/01/19 05:20:56;;;;;;;12.32;6.28;;;;;;;;;;5071834;28;20415;-69
2022/01/19 05:23:21;;;;;;;15.57;6.22;;;;;;;;;;5071781;28;20113;-69
2022/01/19 05:25:47;;;;;;;13.50;6.28;;;;;;;;;;5071671;28;20074;-68
2022/01/19 05:28:13;;;;;;;10.13;6.10;;;;;;;;;;5071336;28;20498;-68
2022/01/19 05:30:38;;;;;;;13.43;6.50;;;;;;;;;;5075451;28;20028;-69
2022/01/19 05:33:04;;;;;;;13.75;6.07;;;;;;;;;;5074295;28;20032;-67
2022/01/19 05:35:30;;;;;;;14.55;6.40;;;;;;;;;;5071272;28;20024;-69
2022/01/19 05:37:55;;;;;;;12.15;6.22;;;;;;;;;;5071092;28;20043;-70
2022/01/19 05:40:21;;;;;;;16.25;7.15;;;;;;;;;;5071637;28;20392;-68
2022/01/19 05:42:48;;;;;;;12.48;6.50;;;;;;;;;;5071215;28;20513;-65
2022/01/19 05:45:14;;;;;;;15.32;7.22;;;;;;;;;;5072451;28;20206;-66
2022/01/19 05:47:40;;;;;;;16.33;6.53;;;;;;;;;;5070950;28;20159;-69
2022/01/19 05:50:06;;;;;;;16.23;6.65;;;;;;;;;;5070931;28;20028;-69
2022/01/19 05:52:31;;;;;;;13.85;6.80;;;;;;;;;;5070803;28;20025;-68
2022/01/19 05:54:57;;;;;;;15.43;6.93;;;;;;;;;;5069385;28;20025;-69
2022/01/19 05:57:23;;;;;;;16.15;7.53;;;;;;;;;;5070783;28;20116;-68
2022/01/19 05:59:48;;;;;;;19.63;8.10;;;;;;;;;;5070916;28;20043;-68
2022/01/19 06:02:14;;;;;;;20.90;7.97;;;;;;;;;;5070836;28;20462;-69
2022/01/19 06:04:39;;;;;;;20.73;7.53;;;;;;;;;;5070720;28;20031;-69
2022/01/19 06:07:05;;;;;;;16.05;7.38;;;;;;;;;;5070317;28;20028;-67
2022/01/19 06:12:05;;;;;;;16.70;7.65;;;;;;;;;;5070537;28;20037;-69
2022/01/19 06:14:32;;;;;;;14.75;7.43;;;;;;;;;;5070804;28;20056;-68
2022/01/19 06:16:58;;;;;;;21.45;8.15;;;;;;;;;;5070677;28;20044;-68
2022/01/19 06:19:24;;;;;;;21.33;8.73;;;;;;;;;;5070055;28;20025;-70
2022/01/19 06:21:49;;;;;;;15.43;8.43;;;;;;;;;;5070634;28;20025;-69
2022/01/19 06:24:14;;;;;;;16.02;8.05;;;;;;;;;;5070223;28;20031;-69
2022/01/19 06:26:40;;;;;;;19.50;9.02;;;;;;;;;;5070600;28;20476;-70
2022/01/19 06:29:05;;;;;;;15.75;8.05;;;;;;;;;;5069855;28;20496;-67
2022/01/19 06:31:31;;;;;;;14.65;8.15;;;;;;;;;;5070218;28;20032;-69
2022/01/19 06:33:56;;;;;;;22.23;10.07;;;;;;;;;;5070400;28;20073;-64
2022/01/19 06:36:22;;;;;;;20.35;10.60;;;;;;;;;;5070311;28;20162;-69
2022/01/19 06:38:47;;;;;;;31.73;12.85;;;;;;;;;;5069971;28;20181;-67
2022/01/19 06:41:13;;;;;;;28.98;11.57;;;;;;;;;;5069974;28;20024;-68
2022/01/19 06:43:38;;;;;;;20.15;10.25;;;;;;;;;;5070075;28;20021;-69
2022/01/19 06:46:04;;;;;;;21.83;10.75;;;;;;;;;;5069845;28;20028;-68
2022/01/19 06:48:29;;;;;;;25.38;10.82;;;;;;;;;;5070254;28;20020;-67
2022/01/19 06:50:55;;;;;;;18.25;9.93;;;;;;;;;;5070104;28;20530;-66
2022/01/19 06:53:20;;;;;;;19.70;10.38;;;;;;;;;;5070106;28;20104;-67
2022/01/19 06:55:46;;;;;;;20.15;10.68;;;;;;;;;;5069966;28;20044;-70
2022/01/19 06:58:12;;;;;;;21.30;9.63;;;;;;;;;;5069704;28;20013;-67
2022/01/19 07:00:37;;;;;;;20.27;10.52;;;;;;;;;;5069754;28;20472;-69
2022/01/19 07:03:03;;;;;;;19.15;9.63;;;;;;;;;;5070021;28;20584;-69
2022/01/19 07:05:28;;;;;;;20.73;10.57;;;;;;;;;;5070064;28;20502;-68
2022/01/19 07:07:56;;;;;;;16.33;9.80;;;;;;;;;;5074496;28;20024;-64
2022/01/19 07:10:22;;;;;;;16.92;9.90;;;;;;;;;;5076538;28;20028;-65
2022/01/19 07:12:48;;;;;;;18.50;10.25;;;;;;;;;;5076523;28;20027;-70
2022/01/19 07:15:13;;;;;;;19.67;9.80;;;;;;;;;;5076521;28;20039;-68
2022/01/19 07:17:39;;;;;;;23.52;10.25;;;;;;;;;;5078757;28;20044;-64
2022/01/19 07:20:05;;;;;;;24.60;11.40;;;;;;;;;;5076241;28;20490;-63
2022/01/19 07:22:31;;;;;;;26.95;11.88;;;;;;;;;;5076605;28;20123;-63
2022/01/19 07:24:58;;;;;;;28.48;11.63;;;;;;;;;;5076294;28;20107;-66
2022/01/19 07:27:24;;;;;;;23.02;11.35;;;;;;;;;;5076375;28;20056;-69
2022/01/19 07:29:49;;;;;;;22.25;10.68;;;;;;;;;;5075966;28;20056;-65
2022/01/19 07:32:15;;;;;;;21.92;10.70;;;;;;;;;;5076204;28;20031;-65
2022/01/19 07:34:41;;;;;;;24.58;11.68;;;;;;;;;;5076190;28;20025;-69
2022/01/19 07:37:07;;;;;;;21.92;12.30;;;;;;;;;;5076443;28;20021;-68
2022/01/19 07:39:32;;;;;;;27.98;12.10;;;;;;;;;;5076107;28;20484;-64
2022/01/19 07:41:58;;;;;;;24.15;11.88;;;;;;;;;;5076208;28;20035;-65
2022/01/19 07:44:23;;;;;;;22.27;11.65;;;;;;;;;;5076516;28;20089;-70
2022/01/19 07:46:51;;;;;;;24.63;11.60;;;;;;;;;;5076104;28;20017;-69
2022/01/19 07:49:17;;;;;;;25.88;11.65;;;;;;;;;;5075849;28;20044;-67
2022/01/19 07:51:42;;;;;;;22.48;11.38;;;;;;;;;;5076096;28;20048;-67
2022/01/19 07:54:08;;;;;;;22.92;10.93;;;;;;;;;;5076188;28;20100;-66
2022/01/19 07:56:33;;;;;;;21.60;11.88;;;;;;;;;;5076049;28;20042;-69
2022/01/19 07:58:59;;;;;;;23.95;11.90;;;;;;;;;;5076130;28;20162;-68
2022/01/19 08:01:26;;;;;;;24.17;11.98;;;;;;;;;;5076319;28;20480;-68
2022/01/19 08:03:51;;;;;;;23.02;11.90;;;;;;;;;;5075948;28;20054;-68
2022/01/19 08:06:17;;;;;;;25.88;12.82;;;;;;;;;;5075940;28;20040;-73
2022/01/19 08:08:42;;;;;;;25.23;11.85;;;;;;;;;;5075705;28;20111;-71
2022/01/19 08:11:07;;;;;;;24.02;12.60;;;;;;;;;;5076148;28;20468;-72
2022/01/19 08:13:33;;;;;;;28.13;12.27;;;;;;;;;;5076274;28;20028;-66
2022/01/19 08:15:58;;;;;;;23.50;11.90;;;;;;;;;;5075751;28;20178;-73
2022/01/19 08:18:24;;;;;;;29.05;13.48;;;;;;;;;;5074599;28;20052;-74
2022/01/19 08:20:49;;;;;;;24.15;12.57;;;;;;;;;;5072599;28;20025;-68
2022/01/19 08:23:15;;;;;;;25.65;13.30;;;;;;;;;;5072616;28;20028;-64
2022/01/19 08:25:40;;;;;;;27.08;13.75;;;;;;;;;;5072556;28;20020;-66
2022/01/19 08:28:06;;;;;;;26.63;13.82;;;;;;;;;;5072824;28;20025;-67
2022/01/19 08:30:31;;;;;;;24.95;13.57;;;;;;;;;;5072322;28;20051;-69
2022/01/19 08:32:57;;;;;;;29.63;14.63;;;;;;;;;;5072606;28;20082;-68
2022/01/19 08:35:23;;;;;;;31.73;14.77;;;;;;;;;;5078265;28;20063;-69
2022/01/19 08:37:49;;;;;;;37.05;14.57;;;;;;;;;;5083039;28;20029;-66
2022/01/19 08:40:15;;;;;;;32.65;16.35;;;;;;;;;;5083541;28;20366;-66
2022/01/19 08:42:40;;;;;;;31.30;15.07;;;;;;;;;;5077172;28;20020;-66
2022/01/19 08:45:08;;;;;;;33.95;14.77;;;;;;;;;;5080247;28;20027;-69
2022/01/19 08:47:36;;;;;;;29.00;13.85;;;;;;;;;;5079347;28;20024;-66
2022/01/19 08:50:06;;;;;;;24.83;13.02;;;;;;;;;;5072006;28;20016;-68
2022/01/19 08:52:32;;;;;;;31.75;14.15;;;;;;;;;;5072253;28;20108;-68
2022/01/19 08:54:57;;;;;;;28.40;12.88;;;;;;;;;;5070573;28;20162;-68
2022/01/19 08:57:24;;;;;;;28.13;13.27;;;;;;;;;;5073717;28;20463;-68
2022/01/19 08:59:50;;;;;;;28.77;13.13;;;;;;;;;;5069735;28;20024;-65
2022/01/19 09:02:16;;;;;;;27.10;12.27;;;;;;;;;;5071985;28;20043;-65
2022/01/19 09:04:42;;;;;;;29.13;12.25;;;;;;;;;;5071571;28;20060;-64
2022/01/19 09:07:07;;;;;;;26.58;12.02;;;;;;;;;;5071540;28;20090;-66
2022/01/19 09:09:33;;;;;;;26.95;11.68;;;;;;;;;;5070757;28;20479;-63
2022/01/19 09:11:58;;;;;;;23.50;10.85;;;;;;;;;;5071548;28;20012;-65
2022/01/19 09:14:24;;;;;;;25.75;11.48;;;;;;;;;;5071445;28;20097;-65
2022/01/19 09:16:49;;;;;;;20.73;12.02;;;;;;;;;;5071069;28;20123;-64
2022/01/19 09:19:16;;;;;;;25.80;12.65;;;;;;;;;;5068569;28;20458;-64
2022/01/19 09:21:41;;;;;;;28.65;12.65;;;;;;;;;;5070818;28;20537;-64
2022/01/19 09:24:10;;;;;;;23.85;12.18;;;;;;;;;;5078192;28;20016;-65
2022/01/19 09:26:36;;;;;;;24.85;12.73;;;;;;;;;;5071221;28;20074;-64
2022/01/19 09:29:01;;;;;;;27.60;12.65;;;;;;;;;;5069584;28;20052;-64
2022/01/19 09:31:27;;;;;;;26.27;12.93;;;;;;;;;;5069108;28;20666;-63
2022/01/19 09:34:02;;;;;;;24.80;13.20;;;;;;;;;;5070504;28;20031;-64
2022/01/19 09:36:35;;;;;;;38.17;14.95;;;;;;;;;;5070797;28;20431;-64
2022/01/19 09:39:04;;;;;;;28.42;13.95;;;;;;;;;;5070978;28;20032;-66
2022/01/19 09:41:30;;;;;;;24.50;14.10;;;;;;;;;;5069760;28;20025;-64
2022/01/19 09:43:56;;;;;;;29.95;15.10;;;;;;;;;;5071766;28;20286;-65
2022/01/19 09:46:21;;;;;;;33.30;15.35;;;;;;;;;;5074956;28;20060;-64
2022/01/19 09:48:47;;;;;;;27.55;14.68;;;;;;;;;;5074132;28;20032;-64
2022/01/19 09:51:14;;;;;;;27.17;14.85;;;;;;;;;;5073855;28;20472;-64
2022/01/19 09:53:41;;;;;;;27.92;14.73;;;;;;;;;;5081232;28;20028;-69
2022/01/19 09:56:06;;;;;;;27.23;15.20;;;;;;;;;;5075050;28;20056;-65
2022/01/19 09:58:32;;;;;;;26.98;14.95;;;;;;;;;;5069578;28;20067;-67
2022/01/19 10:00:57;;;;;;;23.35;13.95;;;;;;;;;;5070169;28;20029;-65
2022/01/19 10:03:32;;;;;;;25.17;13.23;;;;;;;;;;5070498;28;20086;-65
2022/01/19 10:06:07;;;;;;;25.73;13.90;;;;;;;;;;5070438;28;20111;-71
2022/01/19 10:08:40;;;;;;;28.50;14.23;;;;;;;;;;5071983;28;20539;-69
2022/01/19 10:11:29;;;;;;;25.77;14.18;;;;;;;;;;5070113;28;20078;-65
2022/01/19 10:17:05;;;;;;;25.45;13.35;;;;;;;;;;5070215;28;20052;-69
2022/01/19 10:19:34;;;;;;;24.17;13.02;;;;;;;;;;5069506;28;20089;-68
2022/01/19 10:22:16;;;;;;;22.80;13.57;;;;;;;;;;5069762;28;20024;-69
2022/01/19 10:24:47;;;;;;;25.50;12.98;;;;;;;;;;5069701;28;20400;-67
2022/01/19 10:27:42;;;;;;;23.88;12.25;;;;;;;;;;5079324;28;20028;-69
2022/01/19 10:30:08;;;;;;;33.58;13.93;;;;;;;;;;5058415;28;20032;-67
2022/01/19 10:32:40;;;;;;;24.08;12.32;;;;;;;;;;5070580;28;20165;-65
2022/01/19 10:35:15;;;;;;;24.05;12.95;;;;;;;;;;5069389;28;20021;-67
2022/01/19 10:37:40;;;;;;;25.45;13.50;;;;;;;;;;5069583;28;20059;-66
2022/01/19 10:40:07;;;;;;;25.35;12.60;;;;;;;;;;5069622;28;20075;-67
2022/01/19 10:42:33;;;;;;;22.35;12.73;;;;;;;;;;5068905;28;20391;-66
2022/01/19 10:45:08;;;;;;;22.38;12.32;;;;;;;;;;5069440;28;20178;-65
2022/01/19 10:47:44;;;;;;;23.25;11.57;;;;;;;;;;5070156;28;20024;-67
2022/01/19 10:50:12;;;;;;;18.70;9.40;;;;;;;;;;5071881;28;20059;-67
2022/01/19 10:52:40;;;;;;;17.70;9.10;;;;;;;;;;5072819;28;20431;-64
2022/01/19 10:55:28;;;;;;;21.48;8.82;;;;;;;;;;5069676;28;20155;-66
2022/01/19 10:57:55;;;;;;;13.82;6.90;;;;;;;;;;5102106;28;20119;-66
2022/01/19 11:00:29;;;;;;;14.07;7.00;;;;;;;;;;5069467;28;20032;-64
2022/01/19 11:02:58;;;;;;;19.02;9.48;;;;;;;;;;5056671;28;20097;-65
2022/01/19 11:05:53;;;;;;;19.17;8.50;;;;;;;;;;5069924;28;20025;-66
2022/01/19 11:08:21;;;;;;;16.85;8.18;;;;;;;;;;5059942;28;20035;-67
2022/01/19 11:10:49;;;;;;;17.88;8.35;;;;;;;;;;5069377;28;20036;-66
2022/01/19 11:13:25;;;;;;;19.75;7.32;;;;;;;;;;5069532;28;20024;-65
2022/01/19 11:15:50;;;;;;;12.13;7.15;;;;;;;;;;5069227;28;20020;-64
2022/01/19 11:18:16;;;;;;;15.18;7.90;;;;;;;;;;5069069;28;20071;-65
2022/01/19 11:20:44;;;;;;;14.65;7.53;;;;;;;;;;5069257;28;20028;-66
2022/01/19 11:23:36;;;;;;;14.68;7.38;;;;;;;;;;5069555;28;20028;-65
2022/01/19 11:26:01;;;;;;;17.25;9.00;;;;;;;;;;5082577;28;20081;-74
2022/01/19 11:28:34;;;;;;;13.32;6.03;;;;;;;;;;5084124;28;20032;-67
2022/01/19 11:31:03;;;;;;;14.98;8.20;;;;;;;;;;5068374;28;20021;-66
2022/01/19 11:33:30;;;;;;;17.98;9.30;;;;;;;;;;5069118;28;20063;-63
2022/01/19 11:36:05;;;;;;;18.17;7.57;;;;;;;;;;5069156;28;20021;-64
2022/01/19 11:38:33;;;;;;;13.70;7.35;;;;;;;;;;5068868;28;20024;-70
2022/01/19 11:41:02;;;;;;;16.50;8.38;;;;;;;;;;5069023;28;20133;-65
2022/01/19 11:43:29;;;;;;;18.70;9.75;;;;;;;;;;5068929;28;20025;-64
2022/01/19 11:45:56;;;;;;;19.23;10.48;;;;;;;;;;5067515;28;20174;-65
2022/01/19 11:48:25;;;;;;;27.45;10.65;;;;;;;;;;5069091;28;20032;-65
2022/01/19 11:50:52;;;;;;;20.73;8.68;;;;;;;;;;5063356;28;20029;-67
2022/01/19 11:53:19;;;;;;;16.50;8.38;;;;;;;;;;5069169;28;20400;-68
2022/01/19 11:56:20;;;;;;;22.15;9.73;;;;;;;;;;5072885;28;20162;-65
2022/01/19 11:59:00;;;;;;;;;;;;;;;;;;5030365;28;20056;-67
2022/01/19 12:01:26;;;;;;;17.13;8.25;;;;;;;;;;5067782;28;20323;-64
2022/01/19 12:03:51;;;;;;;13.80;8.45;;;;;;;;;;5072452;28;20040;-66
2022/01/19 12:06:31;;;;;;;16.50;8.60;;;;;;;;;;5072417;28;20104;-64
2022/01/19 12:08:57;;;;;;;17.13;8.60;;;;;;;;;;5072480;28;20035;-67
2022/01/19 12:11:23;;;;;;;14.52;8.00;;;;;;;;;;5072616;28;20040;-67
2022/01/19 12:14:07;;;;;;;17.10;8.55;;;;;;;;;;5072375;28;20024;-63
2022/01/19 12:19:06;;;;;;;15.02;8.32;;;;;;;;;;5072465;28;20032;-63
2022/01/19 12:21:32;;;;;;;14.98;8.25;;;;;;;;;;5072145;28;20364;-64
2022/01/19 12:24:16;;;;;;;16.92;7.78;;;;;;;;;;5073169;28;20324;-65
2022/01/19 12:27:04;;;;;;;13.05;6.97;;;;;;;;;;5072326;28;20078;-66
2022/01/19 12:29:36;;;;;;;12.63;6.38;;;;;;;;;;5071732;28;20056;-65
2022/01/19 12:32:28;;;;;;;15.02;7.13;;;;;;;;;;5072288;28;20086;-66
2022/01/19 12:35:07;;;;;;;13.80;6.10;;;;;;;;;;5071888;28;20059;-64
2022/01/19 12:37:32;;;;;;;12.80;6.05;;;;;;;;;;5072304;28;20024;-64
2022/01/19 12:40:19;;;;;;;16.17;9.23;;;;;;;;;;5071993;28;20044;-64
2022/01/19 12:42:44;;;;;;;19.90;9.95;;;;;;;;;;5064492;28;20472;-65
2022/01/19 12:45:16;;;;;;;19.83;9.60;;;;;;;;;;5072037;28;20527;-64
2022/01/19 12:47:41;;;;;;;16.42;8.85;;;;;;;;;;5072186;28;20028;-63
2022/01/19 12:50:06;;;;;;;18.48;9.52;;;;;;;;;;5072048;28;20027;-64
2022/01/19 12:52:33;;;;;;;18.75;9.40;;;;;;;;;;5072104;28;20048;-63
2022/01/19 12:55:11;;;;;;;20.95;11.38;;;;;;;;;;5073744;28;20021;-64
2022/01/19 12:57:36;;;;;;;19.67;11.35;;;;;;;;;;5071736;28;20017;-65
2022/01/19 13:00:05;;;;;;;23.67;10.63;;;;;;;;;;5071771;28;20035;-64
2022/01/19 13:02:30;;;;;;;22.42;10.88;;;;;;;;;;5071740;28;20032;-64
2022/01/19 13:05:13;;;;;;;20.88;11.10;;;;;;;;;;5070945;28;20246;-62
2022/01/19 13:07:44;;;;;;;20.08;10.38;;;;;;;;;;5071939;28;20025;-64
2022/01/19 13:12:54;;;;;;;18.48;10.05;;;;;;;;;;5071582;28;20033;-63
2022/01/19 13:15:20;;;;;;;19.30;10.05;;;;;;;;;;5071480;28;20614;-64
2022/01/19 13:17:48;;;;;;;46.63;29.98;;;;;;;;;;5071393;28;20045;-65
2022/01/19 13:20:23;;;;;;;19.27;10.07;;;;;;;;;;5071370;28;20406;-64
2022/01/19 13:22:55;;;;;;;20.52;9.27;;;;;;;;;;5071782;28;20407;-66
2022/01/19 13:25:27;;;;;;;18.75;9.77;;;;;;;;;;5071485;28;20028;-63
2022/01/19 13:27:58;;;;;;;41.00;22.15;;;;;;;;;;5071232;28;20107;-63
2022/01/19 13:30:25;;;;;;;18.50;9.88;;;;;;;;;;5070970;28;20512;-67
2022/01/19 13:32:52;;;;;;;16.45;8.45;;;;;;;;;;5071157;28;20112;-66
2022/01/19 13:35:19;;;;;;;19.20;8.25;;;;;;;;;;5069696;28;20028;-65
2022/01/19 13:37:51;;;;;;;17.77;8.82;;;;;;;;;;5070740;28;20021;-64
2022/01/19 13:40:20;;;;;;;13.70;7.40;;;;;;;;;;5069599;28;20052;-63
2022/01/19 13:42:49;;;;;;;16.05;8.32;;;;;;;;;;5069541;28;20028;-67
2022/01/19 13:45:48;;;;;;;16.08;8.52;;;;;;;;;;5070745;28;20017;-65
2022/01/19 13:50:57;;;;;;;18.95;8.85;;;;;;;;;;5070685;28;20051;-64
2022/01/19 13:53:27;;;;;;;20.55;10.13;;;;;;;;;;5070992;28;20056;-64
2022/01/19 13:55:55;;;;;;;18.67;9.37;;;;;;;;;;5070964;28;20056;-65
2022/01/19 13:58:20;;;;;;;17.58;8.60;;;;;;;;;;5070816;28;20112;-67
2022/01/19 14:00:52;;;;;;;16.55;8.93;;;;;;;;;;5068858;28;20115;-66
2022/01/19 14:03:19;;;;;;;14.77;7.32;;;;;;;;;;5070653;28;20040;-63
2022/01/19 14:05:47;;;;;;;16.58;8.85;;;;;;;;;;5070693;28;20028;-64
2022/01/19 14:08:13;;;;;;;20.73;8.85;;;;;;;;;;5071066;28;20028;-65
2022/01/19 14:10:49;;;;;;;17.60;8.73;;;;;;;;;;5069614;28;20468;-68
2022/01/19 14:13:34;;;;;;;19.95;10.30;;;;;;;;;;5068895;28;20024;-68
2022/01/19 14:16:21;;;;;;;20.75;7.60;;;;;;;;;;5068387;28;20514;-66
2022/01/19 14:19:08;;;;;;;17.00;7.75;;;;;;;;;;5068318;28;20053;-64
2022/01/19 14:21:51;;;;;;;14.73;7.65;;;;;;;;;;5068256;28;20044;-64
2022/01/19 14:24:17;;;;;;;17.33;8.10;;;;;;;;;;5068735;28;20031;-66
2022/01/19 14:26:59;;;;;;;19.05;8.73;;;;;;;;;;5068884;28;20029;-64
2022/01/19 14:29:25;;;;;;;17.48;8.70;;;;;;;;;;5070099;28;20029;-66
2022/01/19 14:31:52;;;;;;;21.25;8.88;;;;;;;;;;5070044;28;20499;-64
2022/01/19 14:34:40;;;;;;;18.02;8.73;;;;;;;;;;5069989;28;20037;-65
2022/01/19 14:37:13;;;;;;;17.35;9.70;;;;;;;;;;5069996;28;20493;-64
2022/01/19 14:40:06;;;;;;;20.17;9.57;;;;;;;;;;5075918;28;20030;-65
2022/01/19 14:42:36;;;;;;;15.95;8.32;;;;;;;;;;5069892;28;20074;-67
2022/01/19 14:45:22;;;;;;;18.47;8.63;;;;;;;;;;5069919;28;20032;-64
2022/01/19 14:47:47;;;;;;;18.40;7.65;;;;;;;;;;5073805;28;20024;-65
2022/01/19 14:50:22;;;;;;;13.60;8.10;;;;;;;;;;5081373;28;20035;-65
2022/01/19 14:52:51;;;;;;;14.75;7.65;;;;;;;;;;5070533;28;20020;-63
2022/01/19 14:55:18;;;;;;;15.45;7.50;;;;;;;;;;5069824;28;20025;-68
2022/01/19 14:57:44;;;;;;;22.63;7.45;;;;;;;;;;5069774;28;20113;-65
2022/01/19 15:00:10;;;;;;;18.05;7.00;;;;;;;;;;5069850;28;20174;-68
2022/01/19 15:02:36;;;;;;;14.25;7.53;;;;;;;;;;5069705;28;20578;-64
2022/01/19 15:05:01;;;;;;;15.43;7.43;;;;;;;;;;5069810;28;20062;-65
2022/01/19 15:07:27;;;;;;;18.77;7.15;;;;;;;;;;5070777;28;20032;-68
2022/01/19 15:09:52;;;;;;;15.70;6.82;;;;;;;;;;5071497;28;20112;-64
2022/01/19 15:12:18;;;;;;;16.88;7.38;;;;;;;;;;5069460;28;20029;-65
2022/01/19 15:14:45;;;;;;;13.63;7.32;;;;;;;;;;5069627;28;20474;-65
2022/01/19 15:17:11;;;;;;;23.90;9.32;;;;;;;;;;5069453;28;20471;-67
2022/01/19 15:19:37;;;;;;;19.25;9.25;;;;;;;;;;5071926;28;20107;-68
2022/01/19 15:22:04;;;;;;;19.98;9.25;;;;;;;;;;5071604;28;20361;-65
2022/01/19 15:24:29;;;;;;;17.70;10.25;;;;;;;;;;5069682;28;20056;-66
2022/01/19 15:26:55;;;;;;;19.45;10.65;;;;;;;;;;5069575;28;20451;-68
2022/01/19 15:29:20;;;;;;;23.17;13.25;;;;;;;;;;5072096;28;20114;-66
2022/01/19 15:31:50;;;;;;;21.08;10.95;;;;;;;;;;5073239;28;20507;-64
2022/01/19 15:34:19;;;;;;;24.42;11.85;;;;;;;;;;5073437;28;20017;-71
2022/01/19 15:36:45;;;;;;;24.10;10.70;;;;;;;;;;5073311;28;20028;-63
2022/01/19 15:39:11;;;;;;;17.13;10.00;;;;;;;;;;5072979;28;20117;-64
2022/01/19 15:41:38;;;;;;;20.95;11.40;;;;;;;;;;5077876;28;20122;-63
2022/01/19 15:44:04;;;;;;;21.33;10.85;;;;;;;;;;5074068;28;20054;-65
2022/01/19 15:46:30;;;;;;;19.08;10.43;;;;;;;;;;5073295;28;20024;-63
2022/01/19 15:48:55;;;;;;;19.65;10.35;;;;;;;;;;5075104;28;20163;-65
2022/01/19 15:51:21;;;;;;;21.02;10.13;;;;;;;;;;5074591;28;20036;-63
2022/01/19 15:53:47;;;;;;;20.60;11.90;;;;;;;;;;5073036;28;20148;-65
2022/01/19 15:56:13;;;;;;;21.67;10.25;;;;;;;;;;5072973;28;20115;-70
2022/01/19 15:58:39;;;;;;;21.77;11.02;;;;;;;;;;5070529;28;20028;-70
2022/01/19 16:01:05;;;;;;;23.75;12.38;;;;;;;;;;5075610;28;20107;-69
2022/01/19 16:03:30;;;;;;;19.27;9.68;;;;;;;;;;5072209;28;20048;-71